Time;durP1;ratioP1;P1;durP2;ratioP2;P2;SDS_P1;SDS_P2;PMS_P1;PMS_P2;Temp;Humidity;BMP_temperature;BMP_pressure;BME280_temperature;BME280_humidity;BME280_pressure;Samples;Min_cycle;Max_cycle;Signal;HPM_P1;HPM_P2
2021/11/06 00:01:41;;;;;;;0.80;0.80;;;;;;;6.89;100.00;101791.53;5072352;28;20257;-76
2021/11/06 00:04:06;;;;;;;0.83;0.83;;;;;;;6.96;100.00;101804.94;5070892;28;20812;-76
2021/11/06 00:06:32;;;;;;;1.50;1.43;;;;;;;6.96;100.00;101794.06;5071888;28;20227;-74
2021/11/06 00:08:57;;;;;;;1.47;1.37;;;;;;;6.93;100.00;101797.25;5072310;28;20213;-75
2021/11/06 00:11:23;;;;;;;1.53;1.43;;;;;;;6.93;100.00;101901.31;5072214;28;20596;-76
2021/11/06 00:13:48;;;;;;;1.73;1.63;;;;;;;6.98;100.00;101813.66;5071852;28;20253;-75
2021/11/06 00:16:14;;;;;;;2.63;2.43;;;;;;;6.95;100.00;101803.28;5072159;28;20194;-75
2021/11/06 00:18:39;;;;;;;2.57;1.20;;;;;;;6.99;100.00;101801.69;5072202;28;20174;-75
2021/11/06 00:21:04;;;;;;;0.87;0.83;;;;;;;6.99;100.00;101802.53;5072142;28;20200;-75
2021/11/06 00:23:30;;;;;;;1.07;1.03;;;;;;;6.96;100.00;101802.22;5072074;28;20198;-75
2021/11/06 00:25:55;;;;;;;2.43;2.23;;;;;;;6.97;100.00;101803.84;5070650;28;20606;-76
2021/11/06 00:28:20;;;;;;;2.70;2.50;;;;;;;6.96;100.00;101800.31;5070832;28;20221;-75
2021/11/06 00:30:46;;;;;;;1.33;1.23;;;;;;;6.92;100.00;101801.88;5071885;28;20178;-75
2021/11/06 00:33:11;;;;;;;1.80;1.70;;;;;;;6.89;100.00;101807.81;5071941;28;20175;-75
2021/11/06 00:35:37;;;;;;;3.37;3.07;;;;;;;6.87;100.00;101799.13;5071478;28;20289;-75
2021/11/06 00:38:03;;;;;;;4.27;2.40;;;;;;;6.80;100.00;101801.22;5071826;28;20170;-75
2021/11/06 00:40:28;;;;;;;7.30;3.07;;;;;;;6.76;100.00;101802.78;5071792;28;20170;-75
2021/11/06 00:42:53;;;;;;;4.47;4.07;;;;;;;6.76;100.00;101800.06;5071549;28;20166;-75
2021/11/06 00:45:19;;;;;;;1.50;1.40;;;;;;;6.72;100.00;101810.59;5071024;28;20257;-75
2021/11/06 00:47:45;;;;;;;2.00;1.87;;;;;;;6.69;100.00;101808.41;5070263;28;20503;-75
2021/11/06 00:50:15;;;;;;;4.70;4.30;;;;;;;6.69;100.00;101805.69;5071447;28;20595;-74
2021/11/06 00:52:42;;;;;;;5.70;4.30;;;;;;;6.71;100.00;101802.72;5071280;28;20163;-75
2021/11/06 00:55:07;;;;;;;4.30;2.97;;;;;;;6.68;100.00;101801.34;5071260;28;20517;-75
2021/11/06 00:57:33;;;;;;;2.43;2.13;;;;;;;6.71;100.00;101811.69;5071235;28;20200;-75
2021/11/06 00:59:59;;;;;;;3.07;2.87;;;;;;;6.71;100.00;101805.44;5071391;28;20194;-75
2021/11/06 01:02:24;;;;;;;4.80;3.57;;;;;;;6.67;100.00;101815.16;5071288;28;20170;-76
2021/11/06 01:04:49;;;;;;;3.67;3.37;;;;;;;6.65;100.00;101801.00;5070902;28;20167;-75
2021/11/06 01:07:16;;;;;;;3.47;2.97;;;;;;;6.64;100.00;101810.22;5070970;28;20190;-75
2021/11/06 01:09:41;;;;;;;5.50;3.27;;;;;;;6.64;100.00;101804.78;5069776;28;20201;-75
2021/11/06 01:12:07;;;;;;;8.70;4.10;;;;;;;6.64;100.00;101804.78;5071220;28;20175;-75
2021/11/06 01:14:32;;;;;;;3.90;3.50;;;;;;;6.60;100.00;101804.47;5070910;28;20182;-75
2021/11/06 01:16:58;;;;;;;7.27;3.70;;;;;;;6.57;100.00;101811.22;5070942;28;20802;-75
2021/11/06 01:19:23;;;;;;;4.80;4.20;;;;;;;6.59;100.00;101813.69;5071048;28;20220;-75
2021/11/06 01:21:48;;;;;;;5.33;4.33;;;;;;;6.59;100.00;101815.59;5071040;28;20182;-75
2021/11/06 01:24:14;;;;;;;4.80;4.03;;;;;;;6.60;100.00;101812.63;5070910;28;20167;-76
2021/11/06 01:26:39;;;;;;;9.83;4.23;;;;;;;6.58;100.00;101822.91;5070950;28;20510;-75
2021/11/06 01:29:04;;;;;;;3.40;3.10;;;;;;;6.57;100.00;101829.41;5070926;28;20192;-75
2021/11/06 01:31:30;;;;;;;5.23;2.20;;;;;;;6.53;100.00;101818.25;5070974;28;20178;-75
2021/11/06 01:33:55;;;;;;;4.00;3.00;;;;;;;6.56;100.00;101825.06;5070787;28;20216;-75
2021/11/06 01:36:21;;;;;;;2.87;1.67;;;;;;;6.50;100.00;101818.72;5070763;28;20698;-75
2021/11/06 01:38:46;;;;;;;4.10;2.80;;;;;;;6.46;100.00;101808.63;5071039;28;20545;-75
2021/11/06 01:41:12;;;;;;;2.37;2.27;;;;;;;6.45;100.00;101806.97;5070699;28;20198;-75
2021/11/06 01:43:38;;;;;;;1.00;1.00;;;;;;;6.45;100.00;101812.41;5070756;28;20269;-75
2021/11/06 01:46:05;;;;;;;8.33;3.93;;;;;;;6.40;100.00;101802.31;5070711;28;20175;-76
2021/11/06 01:48:31;;;;;;;2.77;2.33;;;;;;;6.37;100.00;101800.09;5070700;28;20548;-75
2021/11/06 01:50:57;;;;;;;4.63;4.03;;;;;;;6.37;100.00;101802.81;5070623;28;20178;-75
2021/11/06 01:53:23;;;;;;;2.53;2.33;;;;;;;6.37;100.00;101804.72;5070683;28;20517;-75
2021/11/06 01:55:51;;;;;;;2.23;2.03;;;;;;;6.37;100.00;101807.41;5070442;28;20218;-75
2021/11/06 01:58:19;;;;;;;2.97;2.67;;;;;;;6.40;100.00;101815.88;5073669;28;20269;-75
2021/11/06 02:00:45;;;;;;;4.87;4.47;;;;;;;6.41;100.00;101828.38;5074814;28;20194;-75
2021/11/06 02:03:12;;;;;;;5.17;4.67;;;;;;;6.40;100.00;101818.59;5074830;28;20209;-75
2021/11/06 02:05:37;;;;;;;3.63;2.83;;;;;;;6.40;100.00;101815.06;5074231;28;20217;-74
2021/11/06 02:08:03;;;;;;;3.40;3.20;;;;;;;6.37;100.00;101818.28;5074568;28;20618;-74
2021/11/06 02:10:29;;;;;;;0.97;0.97;;;;;;;6.33;100.00;101815.22;5075109;28;20174;-75
2021/11/06 02:12:55;;;;;;;3.67;3.37;;;;;;;6.37;100.00;101810.13;5074503;28;20197;-75
2021/11/06 02:15:20;;;;;;;2.80;2.60;;;;;;;6.38;100.00;101815.31;5074364;28;20261;-75
2021/11/06 02:17:46;;;;;;;1.60;1.23;;;;;;;6.45;100.00;101813.22;5073117;28;20631;-75
2021/11/06 02:20:13;;;;;;;6.47;5.83;;;;;;;6.45;100.00;101820.56;5074313;28;20628;-75
2021/11/06 02:22:39;;;;;;;6.97;5.73;;;;;;;6.47;100.00;101813.78;5074406;28;20185;-75
2021/11/06 02:25:05;;;;;;;7.37;4.43;;;;;;;6.46;100.00;101825.72;5074418;28;20261;-76
2021/11/06 02:27:30;;;;;;;7.03;6.13;;;;;;;6.50;100.00;101812.47;5074267;28;20608;-75
2021/11/06 02:29:56;;;;;;;6.17;5.47;;;;;;;6.54;100.00;101819.06;5074194;28;20215;-75
2021/11/06 02:32:21;;;;;;;6.93;6.30;;;;;;;6.55;100.00;101821.53;5072938;28;20175;-76
2021/11/06 02:34:47;;;;;;;5.73;5.23;;;;;;;6.52;100.00;101815.78;5073939;28;20174;-75
2021/11/06 02:37:12;;;;;;;3.03;2.73;;;;;;;6.56;100.00;101817.72;5073917;28;20211;-75
2021/11/06 02:39:38;;;;;;;6.67;5.63;;;;;;;6.55;100.00;101824.25;5074064;28;20262;-75
2021/11/06 02:42:07;;;;;;;3.70;3.40;;;;;;;6.60;100.00;101823.47;5073914;28;20224;-75
2021/11/06 02:44:33;;;;;;;6.53;5.93;;;;;;;6.62;100.00;101818.63;5072439;28;20183;-75
2021/11/06 02:46:59;;;;;;;9.07;6.17;;;;;;;6.61;100.00;101822.41;5073865;28;20217;-74
2021/11/06 02:49:24;;;;;;;5.63;5.13;;;;;;;6.69;100.00;101823.88;5073812;28;20257;-75
2021/11/06 02:51:50;;;;;;;6.63;5.73;;;;;;;6.67;100.00;101821.41;5072262;28;20273;-75
2021/11/06 02:54:16;;;;;;;6.60;5.93;;;;;;;6.67;100.00;101826.84;5073464;28;20228;-75
2021/11/06 02:56:41;;;;;;;8.00;7.20;;;;;;;6.69;100.00;101830.13;5072254;28;20558;-75
2021/11/06 02:59:07;;;;;;;6.57;5.97;;;;;;;6.70;100.00;101820.09;5073698;28;20175;-75
2021/11/06 03:01:33;;;;;;;3.97;3.60;;;;;;;6.72;100.00;101824.19;5073715;28;20716;-75
2021/11/06 03:03:59;;;;;;;5.20;4.80;;;;;;;6.70;100.00;101814.66;5073383;28;20182;-75
2021/11/06 03:06:24;;;;;;;4.87;4.33;;;;;;;6.71;100.00;101816.28;5071703;28;20193;-75
2021/11/06 03:08:49;;;;;;;4.07;2.70;;;;;;;6.75;100.00;101809.28;5073128;28;20178;-75
2021/11/06 03:11:15;;;;;;;3.77;2.97;;;;;;;6.75;100.00;101810.09;5073431;28;20250;-76
2021/11/06 03:13:43;;;;;;;1.43;1.33;;;;;;;6.84;100.00;101815.91;5073260;28;20253;-75
2021/11/06 03:16:10;;;;;;;26.33;2.30;;;;;;;6.84;100.00;101805.88;5072985;28;20206;-74
2021/11/06 03:18:36;;;;;;;5.17;2.93;;;;;;;6.93;100.00;101811.66;5071971;28;20217;-76
2021/11/06 03:21:01;;;;;;;2.77;2.67;;;;;;;6.93;100.00;101821.72;5073356;28;20175;-75
2021/11/06 03:23:28;;;;;;;3.93;3.07;;;;;;;6.93;100.00;101817.09;5073348;28;20261;-75
2021/11/06 03:25:54;;;;;;;4.00;3.67;;;;;;;6.92;100.00;101820.06;5071408;28;20277;-75
2021/11/06 03:28:20;;;;;;;1.20;1.10;;;;;;;6.85;100.00;101807.53;5073027;28;20205;-75
2021/11/06 03:30:45;;;;;;;4.13;3.73;;;;;;;6.82;100.00;101809.94;5073186;28;20645;-75
2021/11/06 03:33:11;;;;;;;5.07;1.70;;;;;;;6.73;100.00;101808.72;5073105;28;20177;-75
2021/11/06 03:35:36;;;;;;;1.90;1.73;;;;;;;6.74;100.00;101818.50;5072751;28;20222;-75
2021/11/06 03:38:01;;;;;;;3.13;2.90;;;;;;;6.75;100.00;101812.81;5071641;28;20534;-75
2021/11/06 03:40:27;;;;;;;2.63;2.43;;;;;;;6.78;100.00;101816.91;5072593;28;20170;-75
2021/11/06 03:42:53;;;;;;;3.23;3.03;;;;;;;6.76;100.00;101819.06;5072871;28;20285;-75
2021/11/06 03:45:18;;;;;;;8.00;4.77;;;;;;;6.75;100.00;101818.25;5072568;28;20175;-75
2021/11/06 03:47:43;;;;;;;1.60;1.50;;;;;;;6.75;100.00;101814.72;5072768;28;20597;-75
2021/11/06 03:50:10;;;;;;;2.33;2.17;;;;;;;6.79;100.00;101818.56;5072739;28;20413;-75
2021/11/06 03:52:36;;;;;;;5.40;4.90;;;;;;;6.72;100.00;101829.63;5072785;28;20197;-74
2021/11/06 03:55:04;;;;;;;1.73;1.63;;;;;;;6.72;100.00;101829.63;5071830;28;20182;-75
2021/11/06 03:57:29;;;;;;;1.60;1.50;;;;;;;6.73;100.00;101833.97;5067897;28;20211;-75
2021/11/06 03:59:54;;;;;;;2.07;1.87;;;;;;;6.76;100.00;101832.66;5072484;28;20542;-75
2021/11/06 04:02:20;;;;;;;2.87;2.67;;;;;;;6.76;100.00;101824.50;5072872;28;20194;-75
2021/11/06 04:04:46;;;;;;;1.30;1.23;;;;;;;6.80;100.00;101826.47;5072620;28;20641;-75
2021/11/06 04:07:11;;;;;;;2.80;2.60;;;;;;;6.79;100.00;101826.69;5072218;28;20194;-75
2021/11/06 04:09:36;;;;;;;4.63;4.23;;;;;;;6.82;100.00;101828.94;5072407;28;20175;-75
2021/11/06 04:12:02;;;;;;;4.37;2.83;;;;;;;6.86;100.00;101827.34;5072352;28;20183;-75
2021/11/06 04:14:27;;;;;;;1.97;1.87;;;;;;;6.90;100.00;101825.78;5072261;28;20190;-75
2021/11/06 04:16:53;;;;;;;1.87;1.77;;;;;;;6.95;100.00;101828.56;5072078;28;20202;-75
2021/11/06 04:19:19;;;;;;;3.60;3.07;;;;;;;6.96;100.00;101826.66;5071736;28;20575;-75
2021/11/06 04:21:44;;;;;;;2.83;2.57;;;;;;;6.94;100.00;101826.91;5071925;28;20170;-75
2021/11/06 04:24:10;;;;;;;1.53;1.40;;;;;;;6.96;100.00;101834.81;5070719;28;20178;-75
2021/11/06 04:26:35;;;;;;;2.50;2.33;;;;;;;6.98;100.00;101832.66;5072056;28;20189;-75
2021/11/06 04:29:01;;;;;;;3.73;3.43;;;;;;;6.95;100.00;101839.44;5072553;28;20181;-76
2021/11/06 04:31:26;;;;;;;3.80;3.37;;;;;;;6.96;100.00;101835.63;5072280;28;20261;-75
2021/11/06 04:33:51;;;;;;;3.50;3.20;;;;;;;6.97;100.00;101845.44;5071896;28;20376;-76
2021/11/06 04:36:17;;;;;;;2.00;1.80;;;;;;;6.98;100.00;101838.91;5071802;28;20702;-74
2021/11/06 04:38:42;;;;;;;1.77;1.67;;;;;;;7.00;100.00;101835.94;5071844;28;20167;-75
2021/11/06 04:41:08;;;;;;;4.53;4.13;;;;;;;6.96;100.00;101832.09;5070561;28;20177;-75
2021/11/06 04:43:34;;;;;;;1.97;1.77;;;;;;;6.95;100.00;101833.19;5071622;28;20550;-75
2021/11/06 04:46:00;;;;;;;5.27;4.43;;;;;;;6.95;100.00;101836.72;5070243;28;20239;-75
2021/11/06 04:48:25;;;;;;;4.83;4.20;;;;;;;6.96;100.00;101840.25;5071578;28;20174;-75
2021/11/06 04:50:51;;;;;;;6.90;6.03;;;;;;;6.96;100.00;101829.38;5071627;28;20179;-76
2021/11/06 04:53:16;;;;;;;5.23;4.07;;;;;;;6.97;100.00;101831.84;5070101;28;20639;-75
2021/11/06 04:55:41;;;;;;;9.07;6.10;;;;;;;7.00;100.00;101842.19;5071294;28;20198;-75
2021/11/06 04:58:07;;;;;;;9.43;3.47;;;;;;;7.01;100.00;101834.88;5071411;28;20231;-75
2021/11/06 05:00:32;;;;;;;5.27;3.93;;;;;;;7.01;100.00;101829.44;5070377;28;20171;-75
2021/11/06 05:02:57;;;;;;;8.00;4.97;;;;;;;7.01;100.00;101830.25;5071288;28;20179;-75
2021/11/06 05:05:23;;;;;;;1.13;0.93;;;;;;;7.02;100.00;101821.03;5071258;28;20181;-75
2021/11/06 05:07:49;;;;;;;5.07;4.57;;;;;;;7.01;100.00;101827.53;5070978;28;20633;-75
2021/11/06 05:10:15;;;;;;;3.77;3.43;;;;;;;7.04;100.00;101839.78;5071346;28;20253;-75
2021/11/06 05:12:40;;;;;;;2.10;2.00;;;;;;;7.06;100.00;101830.31;5069876;28;20273;-75
2021/11/06 05:15:06;;;;;;;3.03;2.73;;;;;;;7.06;100.00;101835.75;5071409;28;20179;-75
2021/11/06 05:17:32;;;;;;;4.00;3.57;;;;;;;7.06;100.00;101830.31;5071180;28;20241;-75
2021/11/06 05:19:58;;;;;;;5.17;4.47;;;;;;;7.05;100.00;101827.84;5071421;28;20275;-75
2021/11/06 05:22:24;;;;;;;1.23;1.13;;;;;;;7.02;100.00;101822.94;5071167;28;20253;-76
2021/11/06 05:24:50;;;;;;;4.83;4.10;;;;;;;6.96;100.00;101819.34;5070939;28;20196;-75
2021/11/06 05:27:15;;;;;;;4.77;4.30;;;;;;;6.94;100.00;101818.75;5071055;28;20262;-74
2021/11/06 05:29:40;;;;;;;1.70;1.60;;;;;;;6.97;100.00;101820.97;5070989;28;20267;-75
2021/11/06 05:32:06;;;;;;;7.83;4.57;;;;;;;6.97;100.00;101822.88;5070910;28;20331;-75
2021/11/06 05:34:32;;;;;;;7.83;7.10;;;;;;;6.95;100.00;101834.00;5070801;28;20174;-75
2021/11/06 05:36:57;;;;;;;3.70;3.40;;;;;;;7.00;100.00;101835.94;5069527;28;20241;-74
2021/11/06 05:39:22;;;;;;;8.20;6.63;;;;;;;6.96;100.00;101824.78;5069577;28;20174;-75
2021/11/06 05:41:48;;;;;;;6.77;6.17;;;;;;;6.94;100.00;101826.06;5070973;28;20174;-75
2021/11/06 05:44:13;;;;;;;4.30;4.00;;;;;;;6.93;100.00;101832.59;5070698;28;20179;-75
2021/11/06 05:46:39;;;;;;;7.93;7.23;;;;;;;6.95;100.00;101833.19;5070880;28;20304;-75
2021/11/06 05:49:04;;;;;;;6.93;5.93;;;;;;;6.97;100.00;101844.63;5069280;28;20261;-75
2021/11/06 05:51:30;;;;;;;6.47;4.70;;;;;;;6.95;100.00;101842.16;5069172;28;20254;-76
2021/11/06 05:53:55;;;;;;;7.00;5.80;;;;;;;6.95;100.00;101844.03;5070056;28;20174;-75
2021/11/06 05:56:20;;;;;;;4.37;3.93;;;;;;;6.93;100.00;101852.44;5070312;28;20202;-75
2021/11/06 05:58:47;;;;;;;2.00;1.90;;;;;;;6.88;100.00;101844.22;5070220;28;20178;-75
2021/11/06 06:01:12;;;;;;;4.47;4.07;;;;;;;6.81;100.00;101830.00;5070200;28;20626;-75
2021/11/06 06:03:37;;;;;;;5.50;2.50;;;;;;;6.78;100.00;101835.94;5070023;28;20204;-75
2021/11/06 06:06:03;;;;;;;2.33;2.13;;;;;;;6.74;100.00;101832.91;5069567;28;20174;-74
2021/11/06 06:08:29;;;;;;;5.60;3.80;;;;;;;6.70;100.00;101837.19;5070208;28;20304;-76
2021/11/06 06:10:54;;;;;;;6.13;4.77;;;;;;;6.69;100.00;101832.03;5068796;28;20265;-75
2021/11/06 06:13:20;;;;;;;7.70;4.20;;;;;;;6.64;100.00;101832.75;5069953;28;20174;-75
2021/11/06 06:15:45;;;;;;;6.67;5.00;;;;;;;6.60;100.00;101828.09;5069670;28;20198;-75
2021/11/06 06:18:10;;;;;;;2.53;2.33;;;;;;;6.57;100.00;101821.28;5069930;28;20178;-75
2021/11/06 06:20:35;;;;;;;1.70;1.30;;;;;;;6.59;100.00;101818.31;5070153;28;20225;-75
2021/11/06 06:23:01;;;;;;;14.53;3.07;;;;;;;6.56;100.00;101820.44;5068726;28;20402;-74
2021/11/06 06:25:26;;;;;;;2.67;2.27;;;;;;;6.56;100.00;101844.88;5069707;28;20185;-75
2021/11/06 06:27:52;;;;;;;4.13;1.90;;;;;;;6.54;100.00;101836.16;5070061;28;20618;-75
2021/11/06 06:30:19;;;;;;;1.70;1.60;;;;;;;6.55;100.00;101829.66;5069944;28;20182;-74
2021/11/06 06:32:46;;;;;;;3.37;3.07;;;;;;;6.51;100.00;101822.28;5069883;28;20216;-74
2021/11/06 06:35:12;;;;;;;2.20;1.20;;;;;;;6.50;100.00;101826.84;5069700;28;20324;-75
2021/11/06 06:37:38;;;;;;;1.80;1.47;;;;;;;6.52;100.00;101832.06;5069779;28;20293;-75
2021/11/06 06:40:05;;;;;;;3.80;3.43;;;;;;;6.52;100.00;101835.59;5069914;28;20285;-75
2021/11/06 06:42:31;;;;;;;4.30;3.83;;;;;;;6.47;100.00;101829.25;5069795;28;20538;-75
2021/11/06 06:44:56;;;;;;;1.80;1.70;;;;;;;6.43;100.00;101831.66;5071925;28;20198;-75
2021/11/06 06:47:22;;;;;;;2.93;2.70;;;;;;;6.45;100.00;101837.66;5073417;28;20206;-75
2021/11/06 06:49:48;;;;;;;6.13;5.63;;;;;;;6.45;100.00;101839.56;5073626;28;20254;-74
2021/11/06 06:52:14;;;;;;;4.83;4.37;;;;;;;6.45;100.00;101828.69;5073393;28;20228;-75
2021/11/06 06:54:40;;;;;;;5.43;4.93;;;;;;;6.48;100.00;101828.19;5073079;28;20175;-74
2021/11/06 06:57:06;;;;;;;9.27;4.97;;;;;;;6.47;100.00;101821.94;5073261;28;20210;-74
2021/11/06 06:59:34;;;;;;;1.13;1.03;;;;;;;6.49;100.00;101836.09;5073345;28;20186;-75
2021/11/06 07:02:01;;;;;;;4.90;1.10;;;;;;;6.48;100.00;101829.00;5073448;28;20237;-76
2021/11/06 07:04:27;;;;;;;2.53;2.33;;;;;;;6.48;100.00;101830.91;5073322;28;20523;-76
2021/11/06 07:06:53;;;;;;;8.00;5.67;;;;;;;6.52;100.00;101832.06;5071477;28;20182;-75
2021/11/06 07:09:21;;;;;;;1.67;1.57;;;;;;;6.57;100.00;101827.53;5073500;28;20187;-76
2021/11/06 07:11:47;;;;;;;5.17;4.57;;;;;;;6.61;100.00;101827.00;5068888;28;20208;-74
2021/11/06 07:14:15;;;;;;;2.20;2.00;;;;;;;6.68;100.00;101839.34;5073791;28;20182;-75
2021/11/06 07:16:41;;;;;;;2.73;2.23;;;;;;;6.74;100.00;101829.38;5073527;28;20205;-74
2021/11/06 07:19:06;;;;;;;2.30;2.10;;;;;;;6.77;100.00;101837.81;5073260;28;20208;-75
2021/11/06 07:21:31;;;;;;;2.40;1.53;;;;;;;6.82;100.00;101842.53;5073444;28;20182;-75
2021/11/06 07:23:57;;;;;;;3.07;2.77;;;;;;;6.88;100.00;101838.78;5073231;28;20665;-75
2021/11/06 07:26:22;;;;;;;2.53;1.80;;;;;;;6.92;100.00;101850.78;5073259;28;20201;-75
2021/11/06 07:28:47;;;;;;;4.10;3.57;;;;;;;6.98;100.00;101847.06;5073142;28;20420;-74
2021/11/06 07:31:13;;;;;;;1.30;1.20;;;;;;;7.05;100.00;101847.69;5073132;28;20253;-75
2021/11/06 07:33:39;;;;;;;0.80;0.80;;;;;;;7.09;100.00;101853.47;5073028;28;20181;-74
2021/11/06 07:36:04;;;;;;;1.23;1.13;;;;;;;7.11;100.00;101851.31;5072959;28;20206;-77
2021/11/06 07:38:29;;;;;;;1.70;1.43;;;;;;;7.10;100.00;101864.06;5072908;28;20432;-76
2021/11/06 07:40:55;;;;;;;1.63;1.20;;;;;;;7.10;100.00;101853.22;5072967;28;20645;-75
2021/11/06 07:43:20;;;;;;;1.17;0.57;;;;;;;7.07;100.00;101864.56;5072827;28;20228;-75
2021/11/06 07:45:45;;;;;;;1.83;1.73;;;;;;;7.05;100.00;101849.59;5072843;28;20190;-76
2021/11/06 07:48:11;;;;;;;1.43;1.23;;;;;;;7.07;100.00;101852.88;5071888;28;20178;-76
2021/11/06 07:50:36;;;;;;;1.03;1.03;;;;;;;7.08;100.00;101846.34;5072805;28;20179;-76
2021/11/06 07:53:02;;;;;;;0.73;0.73;;;;;;;7.11;100.00;101840.44;5072846;28;20774;-74
2021/11/06 07:55:27;;;;;;;0.83;0.83;;;;;;;7.16;100.00;101851.34;5071682;28;20802;-75
2021/11/06 07:57:53;;;;;;;2.00;1.23;;;;;;;7.22;100.00;101854.94;5072703;28;20269;-76
2021/11/06 08:00:18;;;;;;;1.17;1.13;;;;;;;7.26;100.00;101865.06;5072676;28;20178;-76
2021/11/06 08:02:45;;;;;;;0.60;0.40;;;;;;;7.28;100.00;101879.22;5072769;28;20304;-75
2021/11/06 08:05:13;;;;;;;2.10;1.47;;;;;;;7.32;100.00;101876.81;5072274;28;20181;-76
2021/11/06 08:07:39;;;;;;;1.63;1.53;;;;;;;7.35;100.00;101877.13;5072169;28;20198;-76
2021/11/06 08:10:05;;;;;;;2.77;2.10;;;;;;;7.36;100.00;101873.31;5072731;28;20175;-76
2021/11/06 08:12:31;;;;;;;5.10;1.80;;;;;;;7.37;100.00;101871.44;5072322;28;20179;-76
2021/11/06 08:14:57;;;;;;;1.00;1.00;;;;;;;7.38;100.00;101878.53;5072211;28;20403;-76
2021/11/06 08:17:22;;;;;;;1.43;0.90;;;;;;;7.40;100.00;101869.03;5072542;28;20661;-77
2021/11/06 08:19:47;;;;;;;4.33;1.77;;;;;;;7.43;100.00;101873.16;5070003;28;20270;-76
2021/11/06 08:22:14;;;;;;;1.60;1.50;;;;;;;7.44;100.00;101869.34;5068072;28;20289;-76
2021/11/06 08:24:40;;;;;;;1.63;1.53;;;;;;;7.43;100.00;101865.81;5071691;28;20266;-76
2021/11/06 08:27:06;;;;;;;1.27;0.97;;;;;;;7.48;100.00;101867.75;5072003;28;20189;-76
2021/11/06 08:29:31;;;;;;;0.73;0.50;;;;;;;7.49;100.00;101853.06;5072112;28;20624;-77
2021/11/06 08:31:58;;;;;;;10.67;1.43;;;;;;;7.57;100.00;101858.06;5072016;28;20189;-79
2021/11/06 08:34:28;;;;;;;1.87;1.77;;;;;;;7.59;100.00;101864.06;5071248;28;20265;-79
2021/11/06 08:36:55;;;;;;;3.60;0.93;;;;;;;7.61;100.00;101861.91;5071567;28;20210;-79
2021/11/06 08:39:21;;;;;;;0.70;0.67;;;;;;;7.62;99.16;101866.28;5070075;28;20581;-77
2021/11/06 08:41:51;;;;;;;1.80;1.07;;;;;;;7.66;99.65;101886.44;5071347;28;20287;-76
2021/11/06 08:44:18;;;;;;;2.87;1.50;;;;;;;7.68;98.36;101869.88;5071301;28;20210;-75
2021/11/06 08:46:45;;;;;;;0.10;0.10;;;;;;;7.73;98.25;101869.94;5071676;28;20176;-78
2021/11/06 08:49:12;;;;;;;0.20;0.20;;;;;;;7.74;98.16;101866.94;5071635;28;20179;-78
2021/11/06 08:51:38;;;;;;;1.17;1.07;;;;;;;7.76;98.17;101856.63;5071634;28;20595;-76
2021/11/06 08:54:04;;;;;;;0.83;0.80;;;;;;;7.80;98.37;101862.34;5070387;28;20274;-75
2021/11/06 08:56:30;;;;;;;0.33;0.33;;;;;;;7.85;97.44;101873.31;5071512;28;20304;-75
2021/11/06 08:58:57;;;;;;;0.80;0.80;;;;;;;7.86;97.31;101858.63;5071420;28;20573;-75
2021/11/06 09:01:23;;;;;;;0.80;0.80;;;;;;;7.91;96.59;101868.72;5071388;28;20174;-75
2021/11/06 09:03:48;;;;;;;0.33;0.33;;;;;;;7.94;96.36;101876.38;5071008;28;20167;-75
2021/11/06 09:06:14;;;;;;;2.20;0.97;;;;;;;7.98;95.53;101878.34;5070759;28;20186;-75
2021/11/06 09:08:42;;;;;;;0.47;0.47;;;;;;;7.97;94.33;101878.59;5071447;28;20560;-74
2021/11/06 09:11:10;;;;;;;0.70;0.70;;;;;;;8.03;95.06;101862.03;5071402;28;20177;-74
2021/11/06 09:13:36;;;;;;;6.60;1.90;;;;;;;8.02;93.18;101859.56;5070974;28;20173;-74
2021/11/06 09:16:09;;;;;;;0.83;0.57;;;;;;;8.02;94.03;101867.75;5070844;28;20194;-74
2021/11/06 09:18:36;;;;;;;1.00;0.90;;;;;;;8.04;94.03;101866.41;5071217;28;20178;-74
2021/11/06 09:21:02;;;;;;;1.87;1.33;;;;;;;8.05;94.06;101869.94;5071156;28;20297;-74
2021/11/06 09:23:30;;;;;;;0.60;0.50;;;;;;;8.04;93.11;101863.69;5070897;28;20285;-74
2021/11/06 09:25:57;;;;;;;1.43;1.30;;;;;;;8.03;92.49;101874.81;5071264;28;20170;-74
2021/11/06 09:28:24;;;;;;;0.53;0.50;;;;;;;8.03;93.13;101881.09;5070957;28;20174;-74
2021/11/06 09:30:49;;;;;;;3.53;1.50;;;;;;;8.01;91.73;101863.38;5070907;28;20224;-75
2021/11/06 09:33:14;;;;;;;0.90;0.47;;;;;;;8.01;92.16;101866.91;5070936;28;20174;-74
2021/11/06 09:35:41;;;;;;;5.07;2.00;;;;;;;8.02;93.01;101875.91;5069384;28;20206;-75
2021/11/06 09:38:06;;;;;;;2.70;1.70;;;;;;;8.02;92.42;101879.44;5070883;28;20178;-75
2021/11/06 09:40:32;;;;;;;1.70;0.40;;;;;;;8.03;92.22;101877.53;5070858;28;20240;-76
2021/11/06 09:42:57;;;;;;;2.63;0.63;;;;;;;7.99;92.40;101877.25;5070903;28;20657;-75
2021/11/06 09:45:23;;;;;;;1.40;1.23;;;;;;;7.97;91.72;101873.16;5070715;28;20179;-75
2021/11/06 09:47:48;;;;;;;1.30;1.27;;;;;;;7.99;91.33;101860.91;5070800;28;20186;-74
2021/11/06 09:50:16;;;;;;;0.50;0.50;;;;;;;8.00;90.59;101865.28;5070771;28;20304;-75
2021/11/06 09:52:42;;;;;;;1.70;1.10;;;;;;;7.98;90.30;101856.56;5070388;28;20185;-74
2021/11/06 09:55:08;;;;;;;0.50;0.50;;;;;;;8.01;89.56;101860.66;5070030;28;20171;-74
2021/11/06 09:57:34;;;;;;;2.43;0.50;;;;;;;8.02;89.98;101857.66;5070082;28;20205;-75
2021/11/06 10:00:00;;;;;;;6.60;1.23;;;;;;;7.99;89.82;101865.53;5070493;28;20170;-74
2021/11/06 10:02:25;;;;;;;1.57;1.47;;;;;;;7.95;90.32;101851.59;5070286;28;20178;-74
2021/11/06 10:04:51;;;;;;;0.87;0.87;;;;;;;7.99;89.80;101849.22;5069919;28;20186;-74
2021/11/06 10:07:21;;;;;;;0.67;0.67;;;;;;;7.96;90.41;101847.84;5070073;28;20677;-74
2021/11/06 10:10:00;;;;;;;3.73;1.07;;;;;;;7.97;90.21;101856.81;5070531;28;20182;-74
2021/11/06 10:12:26;;;;;;;1.10;0.73;;;;;;;7.94;90.43;101847.25;5070456;28;20170;-74
2021/11/06 10:15:08;;;;;;;0.30;0.30;;;;;;;7.96;90.44;101847.03;5069945;28;20629;-74
2021/11/06 10:17:35;;;;;;;0.73;0.60;;;;;;;7.95;90.20;101848.88;5069058;28;20228;-74
2021/11/06 10:20:30;;;;;;;0.13;0.13;;;;;;;7.94;91.49;101855.41;5073999;28;20182;-74
2021/11/06 10:23:02;;;;;;;1.20;1.20;;;;;;;7.93;92.15;101863.84;5074462;28;20171;-74
2021/11/06 10:25:28;;;;;;;0.87;0.87;;;;;;;7.96;92.03;101847.03;5073907;28;20257;-74
2021/11/06 10:28:00;;;;;;;0.20;0.20;;;;;;;7.99;91.69;101851.94;5069877;28;20217;-74
2021/11/06 10:30:36;;;;;;;2.70;1.73;;;;;;;8.00;91.99;101850.84;5074246;28;20262;-75
2021/11/06 10:33:13;;;;;;;0.50;0.50;;;;;;;8.02;91.19;101843.25;5074539;28;20216;-75
2021/11/06 10:35:42;;;;;;;0.67;0.63;;;;;;;8.04;91.66;101841.09;5074113;28;20257;-75
2021/11/06 10:38:11;;;;;;;0.23;0.23;;;;;;;8.04;92.49;101841.91;5074481;28;20585;-74
2021/11/06 10:40:47;;;;;;;2.07;0.73;;;;;;;8.01;91.45;101834.25;5074328;28;20707;-74
2021/11/06 10:43:15;;;;;;;0.67;0.37;;;;;;;8.01;92.86;101836.16;5074293;28;20178;-75
2021/11/06 10:45:50;;;;;;;1.57;1.47;;;;;;;7.98;92.19;101847.56;5074445;28;20206;-75
2021/11/06 10:48:20;;;;;;;0.50;0.50;;;;;;;7.94;92.30;101833.66;5073997;28;20223;-75
2021/11/06 10:50:57;;;;;;;0.60;0.37;;;;;;;7.95;93.12;101829.84;5073944;28;20175;-75
2021/11/06 10:53:44;;;;;;;0.50;0.50;;;;;;;7.94;94.60;101832.81;5073976;28;20220;-76
2021/11/06 10:56:22;;;;;;;0.40;0.40;;;;;;;7.93;94.47;101823.84;5074128;28;20190;-75
2021/11/06 10:58:50;;;;;;;0.93;0.87;;;;;;;7.95;94.80;101859.78;5053875;28;20183;-75
2021/11/06 11:01:24;;;;;;;0.63;0.63;;;;;;;7.97;95.48;101829.59;5054155;28;20170;-75
2021/11/06 11:03:50;;;;;;;2.77;0.87;;;;;;;7.96;94.91;101814.38;5053900;28;20166;-74
2021/11/06 11:06:18;;;;;;;0.50;0.50;;;;;;;7.91;95.60;101806.13;5053711;28;20260;-75
2021/11/06 11:08:52;;;;;;;1.20;1.10;;;;;;;7.91;96.41;101797.97;5053767;28;20164;-76
2021/11/06 11:11:20;;;;;;;4.07;1.40;;;;;;;7.85;97.41;101804.47;5053763;28;20665;-75
2021/11/06 11:13:51;;;;;;;0.77;0.73;;;;;;;7.88;98.00;101810.22;5053492;28;20171;-75
2021/11/06 11:16:18;;;;;;;2.50;2.10;;;;;;;7.94;98.38;101813.78;5053451;28;20203;-76
2021/11/06 11:18:45;;;;;;;2.80;2.00;;;;;;;8.03;98.53;101814.94;5053516;28;20207;-76
2021/11/06 11:21:19;;;;;;;1.10;0.80;;;;;;;8.07;97.63;101800.53;5053627;28;20179;-74
2021/11/06 11:23:50;;;;;;;1.73;1.27;;;;;;;8.10;96.43;101809.25;5053325;28;20194;-75